createdAt,value
2018-01-29T00:00:40.830Z,22.1
2018-01-29T00:01:41.268Z,22.1
2018-01-29T00:02:40.759Z,22.1
2018-01-29T00:03:40.814Z,22.1
2018-01-29T00:04:40.609Z,22.1
2018-01-29T00:05:40.839Z,22.1
2018-01-29T00:06:40.759Z,22.1
2018-01-29T00:07:40.580Z,22.1
2018-01-29T00:08:40.277Z,22.1
2018-01-29T00:09:40.528Z,22.1
2018-01-29T00:10:40.457Z,22.1
2018-01-29T00:11:40.233Z,22.1
2018-01-29T00:12:40.235Z,22.1
2018-01-29T00:13:39.932Z,22.1
2018-01-29T00:14:40.135Z,22.1
2018-01-29T00:15:40.153Z,22.1
2018-01-29T00:16:39.782Z,22.1
2018-01-29T00:17:39.947Z,22.1
2018-01-29T00:18:39.760Z,22.1
2018-01-29T00:19:39.611Z,22.1
2018-01-29T00:20:39.633Z,22.1
2018-01-29T00:21:39.824Z,22.1
2018-01-29T00:22:39.784Z,22.1
2018-01-29T00:23:39.399Z,22.1
2018-01-29T00:24:39.234Z,22.1
2018-01-29T00:25:39.418Z,22.2
2018-01-29T00:26:39.440Z,22.2
2018-01-29T00:27:39.416Z,22.2
2018-01-29T00:28:39.134Z,22.2
2018-01-29T00:29:39.131Z,22.2
2018-01-29T00:30:38.990Z,22.3
2018-01-29T00:31:38.687Z,22.2
2018-01-29T00:32:38.781Z,22.2
2018-01-29T00:33:38.957Z,22.2
2018-01-29T00:34:38.542Z,22.2
2018-01-29T00:35:38.428Z,22.2
2018-01-29T00:36:38.690Z,22.2
2018-01-29T00:37:38.366Z,22.2
2018-01-29T00:38:38.440Z,22.2
2018-01-29T00:39:38.302Z,22.2
2018-01-29T00:40:38.227Z,22.1
2018-01-29T00:41:38.123Z,22.1
2018-01-29T00:42:38.537Z,22.1
2018-01-29T00:43:38.024Z,22.1
2018-01-29T00:44:38.060Z,22.1
2018-01-29T00:45:37.884Z,22.1
2018-01-29T00:46:37.835Z,22.1
2018-01-29T00:47:37.816Z,22.1
2018-01-29T00:48:37.568Z,22.1
2018-01-29T00:49:37.729Z,22.1
2018-01-29T00:50:37.639Z,22.1
2018-01-29T00:51:37.394Z,22.1
2018-01-29T00:52:37.325Z,22.1
2018-01-29T00:53:37.218Z,22
2018-01-29T00:54:37.376Z,22.1
2018-01-29T00:55:37.263Z,22
2018-01-29T00:56:37.045Z,22
2018-01-29T00:57:37.154Z,22
2018-01-29T00:58:37.179Z,22
2018-01-29T00:59:36.808Z,22
2018-01-29T01:00:36.918Z,22
2018-01-29T01:01:36.703Z,22
2018-01-29T01:02:36.541Z,22
2018-01-29T01:03:36.882Z,22
2018-01-29T01:04:36.569Z,22.1
2018-01-29T01:05:36.606Z,22.1
2018-01-29T01:06:36.321Z,22.1
2018-01-29T01:07:36.299Z,22.1
2018-01-29T01:08:36.592Z,22.1
2018-01-29T01:09:36.226Z,22.1
2018-01-29T01:10:36.149Z,22.1
2018-01-29T01:11:36.012Z,22.1
2018-01-29T01:12:36.489Z,22.1
2018-01-29T01:13:35.821Z,22.1
2018-01-29T01:14:36.035Z,22.1
2018-01-29T01:15:35.698Z,22.1
2018-01-29T01:16:35.851Z,22.1
2018-01-29T01:17:35.564Z,22.1
2018-01-29T01:18:35.802Z,22.1
2018-01-29T01:19:35.891Z,22.1
2018-01-29T01:20:35.298Z,22.1
2018-01-29T01:21:35.566Z,22.1
2018-01-29T01:22:35.611Z,22.1
2018-01-29T01:23:35.192Z,22.1
2018-01-29T01:24:35.255Z,22.1
2018-01-29T01:25:35.119Z,22.1
2018-01-29T01:26:35.152Z,22.1
2018-01-29T01:27:34.985Z,22.1
2018-01-29T01:28:35.011Z,22.1
2018-01-29T01:29:34.803Z,22.1
2018-01-29T01:30:34.841Z,22.1
2018-01-29T01:31:34.775Z,22.1
2018-01-29T01:32:34.737Z,22.1
2018-01-29T01:33:34.568Z,22.2
2018-01-29T01:34:34.492Z,22.2
2018-01-29T01:35:34.533Z,22.2
2018-01-29T01:36:34.656Z,22.2
2018-01-29T01:37:34.440Z,22.2
2018-01-29T01:38:34.217Z,22.2
2018-01-29T01:39:34.088Z,22.2
2018-01-29T01:40:34.092Z,22.1
2018-01-29T01:41:34.078Z,22.1
2018-01-29T01:42:33.776Z,22.1
2018-01-29T01:43:33.972Z,22.1
2018-01-29T01:44:33.800Z,22.1
2018-01-29T01:45:33.698Z,22.1
2018-01-29T01:46:33.820Z,22.1
2018-01-29T01:47:33.595Z,22.1
2018-01-29T01:48:33.528Z,22.1
2018-01-29T01:49:33.356Z,22.1
2018-01-29T01:50:33.312Z,22.1
2018-01-29T01:51:33.275Z,22.2
2018-01-29T01:52:33.358Z,22.2
2018-01-29T01:53:33.062Z,22.2
2018-01-29T01:54:33.099Z,22.2
2018-01-29T01:55:33.019Z,22.2
2018-01-29T01:56:33.446Z,22.2
2018-01-29T01:57:33.299Z,22.2
2018-01-29T01:58:32.935Z,22.2
2018-01-29T01:59:32.872Z,22.2
2018-01-29T02:00:32.595Z,22.1
2018-01-29T02:01:32.778Z,22.1
2018-01-29T02:02:32.572Z,22.1
2018-01-29T02:03:32.437Z,22.1
2018-01-29T02:04:32.409Z,22.1
2018-01-29T02:05:32.454Z,22.1
2018-01-29T02:06:32.468Z,22.1
2018-01-29T02:07:32.351Z,22.1
2018-01-29T02:08:32.241Z,22.1
2018-01-29T02:09:31.977Z,22.1
2018-01-29T02:10:32.588Z,22.1
2018-01-29T02:11:31.874Z,22.1
2018-01-29T02:12:31.785Z,22.1
2018-01-29T02:13:32.035Z,22.1
2018-01-29T02:14:31.743Z,22.1
2018-01-29T02:15:32.052Z,22.1
2018-01-29T02:16:31.696Z,22.1
2018-01-29T02:17:31.800Z,22.1
2018-01-29T02:18:31.376Z,22.1
2018-01-29T02:19:31.900Z,22.1
2018-01-29T02:20:31.702Z,22.1
2018-01-29T02:21:31.356Z,22.1
2018-01-29T02:22:31.360Z,22.1
2018-01-29T02:23:31.028Z,22.1
2018-01-29T02:24:31.219Z,22.1
2018-01-29T02:25:31.002Z,22.1
2018-01-29T02:26:30.891Z,22.1
2018-01-29T02:27:31.049Z,22.1
2018-01-29T02:28:30.648Z,22.1
2018-01-29T02:29:30.822Z,22.1
2018-01-29T02:30:30.578Z,22.1
2018-01-29T02:31:30.396Z,22.1
2018-01-29T02:32:30.737Z,22.1
2018-01-29T02:33:30.526Z,22.1
2018-01-29T02:34:30.502Z,22.2
2018-01-29T02:35:30.314Z,22.2
2018-01-29T02:36:30.147Z,22.2
2018-01-29T02:37:30.131Z,22.1
2018-01-29T02:38:30.267Z,22.1
2018-01-29T02:39:29.891Z,22.1
2018-01-29T02:40:30.063Z,22.1
2018-01-29T02:41:30.376Z,22.1
2018-01-29T02:42:29.683Z,22.1
2018-01-29T02:43:29.665Z,22.1
2018-01-29T02:44:29.475Z,22.1
2018-01-29T02:45:29.628Z,22.1
2018-01-29T02:46:29.598Z,22.1
2018-01-29T02:47:29.408Z,22.1
2018-01-29T02:48:29.327Z,22.1
2018-01-29T02:49:29.283Z,22.1
2018-01-29T02:50:29.034Z,22.1
2018-01-29T02:51:29.388Z,22.1
2018-01-29T02:52:29.009Z,22.1
2018-01-29T02:53:28.825Z,22.1
2018-01-29T02:54:28.812Z,22.1
2018-01-29T02:55:28.706Z,22.1
2018-01-29T02:56:28.531Z,22.1
2018-01-29T02:57:28.675Z,22.1
2018-01-29T02:58:28.538Z,22.1
2018-01-29T02:59:28.873Z,22.1
2018-01-29T03:00:28.670Z,22.1
2018-01-29T03:01:28.230Z,22.1
2018-01-29T03:02:28.294Z,22.1
2018-01-29T03:03:28.145Z,22.1
2018-01-29T03:04:28.246Z,22.1
2018-01-29T03:05:27.859Z,22.1
2018-01-29T03:06:27.803Z,22.1
2018-01-29T03:07:27.847Z,22.1
2018-01-29T03:08:27.651Z,22.1
2018-01-29T03:09:27.775Z,22.1
2018-01-29T03:10:27.783Z,22.1
2018-01-29T03:11:27.405Z,22.1
2018-01-29T03:12:27.452Z,22.1
2018-01-29T03:13:27.403Z,22.1
2018-01-29T03:14:27.459Z,22.1
2018-01-29T03:15:27.632Z,22.1
2018-01-29T03:16:27.015Z,22.1
2018-01-29T03:17:26.971Z,22.1
2018-01-29T03:18:27.038Z,22.1
2018-01-29T03:19:26.784Z,22.1
2018-01-29T03:20:27.002Z,22.1
2018-01-29T03:21:26.846Z,22.1
2018-01-29T03:22:26.815Z,22.1
2018-01-29T03:23:26.616Z,22.1
2018-01-29T03:24:26.450Z,22.1
2018-01-29T03:25:26.340Z,22.1
2018-01-29T03:26:26.439Z,22.1
2018-01-29T03:27:26.261Z,22.1
2018-01-29T03:28:26.075Z,22.1
2018-01-29T03:29:26.018Z,22.2
2018-01-29T03:30:25.916Z,22.1
2018-01-29T03:31:26.123Z,22.2
2018-01-29T03:32:25.977Z,22.2
2018-01-29T03:33:26.148Z,22.2
2018-01-29T03:34:25.635Z,22.2
2018-01-29T03:35:25.586Z,22.1
2018-01-29T03:36:25.568Z,22.1
2018-01-29T03:37:25.578Z,22.1
2018-01-29T03:38:25.427Z,22.1
2018-01-29T03:39:25.301Z,22.1
2018-01-29T03:40:25.233Z,22.1
2018-01-29T03:41:25.279Z,22.1
2018-01-29T03:42:25.182Z,22.1
2018-01-29T03:43:25.289Z,22.1
2018-01-29T03:44:25.301Z,22.1
2018-01-29T03:45:24.788Z,22.1
2018-01-29T03:46:24.762Z,22.1
2018-01-29T03:47:24.747Z,22.1
2018-01-29T03:48:24.821Z,22.1
2018-01-29T03:49:24.717Z,22
2018-01-29T03:50:24.294Z,22
2018-01-29T03:51:24.370Z,22
2018-01-29T03:52:24.295Z,22
2018-01-29T03:53:24.413Z,22
2018-01-29T03:54:23.996Z,22.1
2018-01-29T03:55:24.218Z,22.1
2018-01-29T03:56:24.084Z,22.1
2018-01-29T03:57:23.970Z,22.1
2018-01-29T03:58:23.876Z,22.1
2018-01-29T03:59:23.747Z,22.1
2018-01-29T04:00:23.501Z,22.1
2018-01-29T04:01:23.755Z,22.1
2018-01-29T04:02:23.794Z,22.1
2018-01-29T04:03:23.748Z,22.1
2018-01-29T04:04:23.452Z,22.1
2018-01-29T04:05:23.378Z,22.1
2018-01-29T04:06:23.262Z,22.1
2018-01-29T04:07:23.129Z,22.1
2018-01-29T04:08:22.996Z,22
2018-01-29T04:09:22.957Z,22
2018-01-29T04:10:23.089Z,22
2018-01-29T04:11:22.688Z,22
2018-01-29T04:12:22.647Z,21.9
2018-01-29T04:13:22.599Z,21.9
2018-01-29T04:14:22.459Z,21.9
2018-01-29T04:15:22.589Z,21.9
2018-01-29T04:16:22.331Z,21.9
2018-01-29T04:17:22.362Z,21.9
2018-01-29T04:18:22.328Z,21.9
2018-01-29T04:19:22.195Z,21.9
2018-01-29T04:20:21.982Z,21.9
2018-01-29T04:21:22.009Z,21.9
2018-01-29T04:22:22.688Z,21.9
2018-01-29T04:23:22.039Z,21.9
2018-01-29T04:24:21.702Z,21.8
2018-01-29T04:25:21.619Z,21.8
2018-01-29T04:26:21.950Z,21.8
2018-01-29T04:27:21.433Z,21.8
2018-01-29T04:28:21.531Z,21.8
2018-01-29T04:29:21.490Z,21.8
2018-01-29T04:30:21.306Z,21.8
2018-01-29T04:31:21.336Z,21.8
2018-01-29T04:32:21.148Z,21.8
2018-01-29T04:33:21.374Z,21.8
2018-01-29T04:34:20.883Z,21.8
2018-01-29T04:35:20.899Z,21.8
2018-01-29T04:36:21.128Z,21.8
2018-01-29T04:37:20.591Z,21.8
2018-01-29T04:38:20.746Z,21.8
2018-01-29T04:39:20.760Z,21.8
2018-01-29T04:40:20.702Z,21.8
2018-01-29T04:41:20.335Z,21.8
2018-01-29T04:42:20.324Z,21.8
2018-01-29T04:43:20.414Z,21.8
2018-01-29T04:44:20.314Z,21.8
2018-01-29T04:45:20.225Z,21.8
2018-01-29T04:46:20.045Z,21.9
2018-01-29T04:47:19.961Z,21.9
2018-01-29T04:48:19.905Z,21.9
2018-01-29T04:49:20.060Z,21.9
2018-01-29T04:50:19.907Z,21.9
2018-01-29T04:51:19.639Z,21.9
2018-01-29T04:52:19.574Z,21.9
2018-01-29T04:53:19.596Z,21.9
2018-01-29T04:54:19.530Z,21.9
2018-01-29T04:55:19.526Z,21.9
2018-01-29T04:56:19.183Z,21.9
2018-01-29T04:57:19.174Z,21.9
2018-01-29T04:58:19.132Z,21.9
2018-01-29T04:59:19.007Z,21.8
2018-01-29T05:00:19.131Z,21.8
2018-01-29T05:01:18.884Z,21.8
2018-01-29T05:02:18.784Z,21.8
2018-01-29T05:03:18.714Z,21.8
2018-01-29T05:04:18.926Z,21.8
2018-01-29T05:05:18.570Z,21.8
2018-01-29T05:06:18.365Z,21.8
2018-01-29T05:07:18.726Z,21.8
2018-01-29T05:08:18.241Z,21.8
2018-01-29T05:09:18.341Z,21.8
2018-01-29T05:10:18.268Z,21.8
2018-01-29T05:11:18.264Z,21.8
2018-01-29T05:12:17.924Z,21.9
2018-01-29T05:13:18.326Z,21.9
2018-01-29T05:14:18.028Z,21.9
2018-01-29T05:15:17.762Z,21.9
2018-01-29T05:16:17.761Z,21.9
2018-01-29T05:17:17.582Z,21.9
2018-01-29T05:18:17.453Z,21.9
2018-01-29T05:19:17.524Z,21.9
2018-01-29T05:20:17.485Z,21.9
2018-01-29T05:21:17.293Z,21.9
2018-01-29T05:22:17.220Z,21.9
2018-01-29T05:23:17.088Z,21.9
2018-01-29T05:24:17.245Z,21.9
2018-01-29T05:25:16.878Z,21.9
2018-01-29T05:26:17.008Z,21.9
2018-01-29T05:27:17.114Z,21.9
2018-01-29T05:28:16.695Z,22
2018-01-29T05:29:16.625Z,22
2018-01-29T05:30:16.743Z,22
2018-01-29T05:31:16.804Z,22
2018-01-29T05:32:16.501Z,22
2018-01-29T05:33:16.185Z,22
2018-01-29T05:34:16.159Z,22
2018-01-29T05:35:16.192Z,22
2018-01-29T05:36:16.219Z,22
2018-01-29T05:37:15.950Z,22
2018-01-29T05:38:15.937Z,22
2018-01-29T05:39:15.864Z,22
2018-01-29T05:40:15.982Z,22
2018-01-29T05:41:15.967Z,22
2018-01-29T05:42:15.480Z,22.1
2018-01-29T05:43:15.753Z,22.1
2018-01-29T05:44:15.320Z,22.1
2018-01-29T05:45:15.407Z,22.1
2018-01-29T05:46:15.331Z,22.1
2018-01-29T05:47:15.443Z,22.1
2018-01-29T05:48:15.377Z,22.1
2018-01-29T05:49:15.283Z,22.1
2018-01-29T05:50:14.943Z,22.1
2018-01-29T05:51:15.179Z,22.1
2018-01-29T05:52:14.754Z,22.1
2018-01-29T05:53:14.795Z,22.1
2018-01-29T05:54:14.896Z,22.1
2018-01-29T05:55:14.652Z,22.1
2018-01-29T05:56:14.659Z,22.1
2018-01-29T05:57:14.472Z,22
2018-01-29T05:58:14.384Z,22
2018-01-29T05:59:14.325Z,22
2018-01-29T06:00:14.300Z,22
2018-01-29T06:01:14.203Z,22
2018-01-29T06:02:14.115Z,22
2018-01-29T06:03:13.994Z,22
2018-01-29T06:04:13.811Z,21.9
2018-01-29T06:05:14.410Z,21.9
2018-01-29T06:06:13.595Z,21.9
2018-01-29T06:07:13.869Z,21.9
2018-01-29T06:08:13.712Z,21.9
2018-01-29T06:09:13.786Z,21.9
2018-01-29T06:10:13.434Z,21.9
2018-01-29T06:11:13.351Z,21.9
2018-01-29T06:12:13.245Z,21.9
2018-01-29T06:13:13.217Z,21.9
2018-01-29T06:14:13.237Z,22
2018-01-29T06:15:13.166Z,22
2018-01-29T06:16:13.088Z,22.1
2018-01-29T06:17:12.938Z,22.1
2018-01-29T06:18:12.835Z,22.1
2018-01-29T06:19:12.619Z,22.1
2018-01-29T06:20:12.551Z,22.1
2018-01-29T06:21:12.695Z,22.1
2018-01-29T06:22:12.867Z,22.1
2018-01-29T06:23:12.265Z,22.1
2018-01-29T06:24:12.542Z,22.1
2018-01-29T06:25:12.465Z,22.1
2018-01-29T06:26:12.297Z,22.1
2018-01-29T06:27:12.465Z,22.1
2018-01-29T06:28:11.872Z,22.1
2018-01-29T06:29:12.711Z,22.2
2018-01-29T06:30:11.980Z,22.2
2018-01-29T06:31:11.726Z,22.2
2018-01-29T06:32:11.680Z,22.2
2018-01-29T06:33:11.698Z,22.3
2018-01-29T06:34:11.600Z,22.3
2018-01-29T06:35:11.892Z,22.3
2018-01-29T06:36:11.344Z,22.3
2018-01-29T06:37:11.400Z,22.3
2018-01-29T06:38:11.257Z,22.4
2018-01-29T06:39:11.062Z,22.4
2018-01-29T06:40:11.391Z,22.5
2018-01-29T06:41:10.994Z,22.5
2018-01-29T06:42:11.136Z,22.6
2018-01-29T06:43:11.160Z,22.7
2018-01-29T06:44:10.624Z,22.8
2018-01-29T06:45:10.805Z,22.8
2018-01-29T06:46:11.019Z,22.9
2018-01-29T06:47:10.832Z,23
2018-01-29T06:48:10.468Z,23.1
2018-01-29T06:49:10.423Z,23.2
2018-01-29T06:50:10.178Z,23.3
2018-01-29T06:51:10.520Z,23.4
2018-01-29T06:52:10.224Z,23.6
2018-01-29T06:53:10.003Z,23.7
2018-01-29T06:54:10.648Z,23.8
2018-01-29T06:55:09.849Z,23.9
2018-01-29T06:56:09.877Z,24.1
2018-01-29T06:57:09.654Z,24.2
2018-01-29T06:58:09.738Z,24.3
2018-01-29T06:59:09.543Z,24.4
2018-01-29T07:00:09.546Z,24.6
2018-01-29T07:01:09.519Z,24.6
2018-01-29T07:02:09.215Z,24.8
2018-01-29T07:03:09.775Z,24.9
2018-01-29T07:04:09.215Z,25
2018-01-29T07:05:09.466Z,25.1
2018-01-29T07:06:09.009Z,25.2
2018-01-29T07:07:09.087Z,25.3
2018-01-29T07:08:08.999Z,25.4
2018-01-29T07:09:08.716Z,25.5
2018-01-29T07:10:08.813Z,25.5
2018-01-29T07:11:08.587Z,25.6
2018-01-29T07:12:08.514Z,25.6
2018-01-29T07:13:08.792Z,25.6
2018-01-29T07:14:08.315Z,25.6
2018-01-29T07:15:08.460Z,25.6
2018-01-29T07:16:08.269Z,25.5
2018-01-29T07:17:08.122Z,25.5
2018-01-29T07:18:08.185Z,25.4
2018-01-29T07:19:08.250Z,25.4
2018-01-29T07:20:07.955Z,25.4
2018-01-29T07:21:07.753Z,25.4
2018-01-29T07:22:07.691Z,25.4
2018-01-29T07:23:08.053Z,25.4
2018-01-29T07:24:07.648Z,25.4
2018-01-29T07:25:07.566Z,25.4
2018-01-29T07:26:07.588Z,25.5
2018-01-29T07:27:07.409Z,25.5
2018-01-29T07:28:07.694Z,25.6
2018-01-29T07:29:07.126Z,25.6
2018-01-29T07:30:07.640Z,25.6
2018-01-29T07:31:07.078Z,25.7
2018-01-29T07:32:07.131Z,25.7
2018-01-29T07:33:07.013Z,25.8
2018-01-29T07:34:06.878Z,25.8
2018-01-29T07:35:06.780Z,25.8
2018-01-29T07:36:06.593Z,25.8
2018-01-29T07:37:06.801Z,25.8
2018-01-29T07:38:06.696Z,25.8
2018-01-29T07:39:06.333Z,25.8
2018-01-29T07:40:06.228Z,25.8
2018-01-29T07:41:06.272Z,25.8
2018-01-29T07:42:06.633Z,25.8
2018-01-29T07:43:06.052Z,25.7
2018-01-29T07:44:06.320Z,25.7
2018-01-29T07:45:06.192Z,25.7
2018-01-29T07:46:05.938Z,25.6
2018-01-29T07:47:05.769Z,25.6
2018-01-29T07:48:05.763Z,25.6
2018-01-29T07:49:05.704Z,25.6
2018-01-29T07:50:05.690Z,25.6
2018-01-29T07:51:05.467Z,25.5
2018-01-29T07:52:05.827Z,25.4
2018-01-29T07:53:05.391Z,25.4
2018-01-29T07:54:05.427Z,25.4
2018-01-29T07:55:05.135Z,25.3
2018-01-29T07:56:05.015Z,25.3
2018-01-29T07:57:05.192Z,25.3
2018-01-29T07:58:04.963Z,25.2
2018-01-29T07:59:05.054Z,25.2
2018-01-29T08:00:05.119Z,25.1
2018-01-29T08:01:04.821Z,25.1
2018-01-29T08:02:04.869Z,25.1
2018-01-29T08:03:04.607Z,25
2018-01-29T08:04:04.620Z,24.9
2018-01-29T08:05:04.579Z,24.9
2018-01-29T08:06:04.480Z,24.9
2018-01-29T08:07:04.715Z,24.9
2018-01-29T08:08:04.306Z,24.8
2018-01-29T08:09:04.739Z,24.8
2018-01-29T08:10:04.081Z,24.8
2018-01-29T08:11:04.146Z,24.7
2018-01-29T08:12:04.365Z,24.6
2018-01-29T08:13:04.020Z,24.6
2018-01-29T08:14:04.019Z,24.6
2018-01-29T08:15:03.887Z,24.6
2018-01-29T08:16:03.786Z,24.5
2018-01-29T08:17:03.756Z,24.5
2018-01-29T08:18:03.551Z,24.4
2018-01-29T08:19:03.639Z,24.5
2018-01-29T08:20:03.634Z,24.4
2018-01-29T08:21:03.860Z,24.4
2018-01-29T08:22:03.502Z,24.4
2018-01-29T08:23:03.239Z,24.4
2018-01-29T08:24:03.322Z,24.3
2018-01-29T08:25:03.170Z,24.3
2018-01-29T08:26:03.000Z,24.3
2018-01-29T08:27:03.422Z,24.3
2018-01-29T08:28:03.087Z,24.3
2018-01-29T08:29:03.380Z,24.3
2018-01-29T08:30:02.728Z,24.3
2018-01-29T08:31:02.749Z,24.2
2018-01-29T08:32:02.808Z,24.2
2018-01-29T08:33:02.953Z,24.2
2018-01-29T08:34:02.499Z,24.2
2018-01-29T08:35:02.819Z,24.1
2018-01-29T08:36:02.405Z,24.1
2018-01-29T08:37:02.456Z,24.1
2018-01-29T08:38:02.162Z,24.1
2018-01-29T08:39:02.523Z,24.1
2018-01-29T08:40:02.247Z,24.1
2018-01-29T08:41:02.395Z,24.1
2018-01-29T08:42:02.062Z,24.1
2018-01-29T08:43:02.143Z,24.1
2018-01-29T08:44:01.934Z,24.1
2018-01-29T08:45:01.719Z,24.1
2018-01-29T08:46:02.001Z,24.1
2018-01-29T08:47:01.648Z,24
2018-01-29T08:48:01.760Z,24
2018-01-29T08:49:02.022Z,24
2018-01-29T08:50:01.551Z,24
2018-01-29T08:51:01.422Z,24
2018-01-29T08:52:01.236Z,24
2018-01-29T08:53:01.516Z,24
2018-01-29T08:54:01.178Z,24
2018-01-29T08:55:01.086Z,24
2018-01-29T08:56:01.140Z,24
2018-01-29T08:57:01.007Z,24
2018-01-29T08:58:01.039Z,24
2018-01-29T08:59:00.716Z,24
2018-01-29T09:00:01.014Z,24
2018-01-29T09:01:00.606Z,24
2018-01-29T09:02:00.805Z,24
2018-01-29T09:03:00.462Z,24
2018-01-29T09:04:00.679Z,24.1
2018-01-29T09:05:00.409Z,24.1
2018-01-29T09:06:00.797Z,24
2018-01-29T09:07:00.198Z,24
2018-01-29T09:08:00.390Z,24
2018-01-29T09:08:59.958Z,24
2018-01-29T09:10:00.026Z,24
2018-01-29T09:10:59.990Z,24
2018-01-29T09:12:00.201Z,24.1
2018-01-29T09:12:59.905Z,24
2018-01-29T09:13:59.944Z,24
2018-01-29T09:14:59.923Z,24
2018-01-29T09:15:59.695Z,24
2018-01-29T09:16:59.568Z,24
2018-01-29T09:17:59.526Z,24
2018-01-29T09:18:59.749Z,24.1
2018-01-29T09:19:59.658Z,24
2018-01-29T09:20:59.211Z,24
2018-01-29T09:21:59.123Z,24
2018-01-29T09:22:59.208Z,24
2018-01-29T09:23:59.106Z,24
2018-01-29T09:24:59.037Z,24
2018-01-29T09:25:58.847Z,24
2018-01-29T09:26:58.850Z,24
2018-01-29T09:27:58.832Z,24
2018-01-29T09:28:58.747Z,23.9
2018-01-29T09:29:58.977Z,24
2018-01-29T09:30:58.721Z,24
2018-01-29T09:31:58.615Z,24
2018-01-29T09:32:58.304Z,24
2018-01-29T09:33:58.338Z,24
2018-01-29T09:34:58.407Z,23.9
2018-01-29T09:35:58.444Z,23.9
2018-01-29T09:36:58.374Z,23.9
2018-01-29T09:37:58.127Z,23.9
2018-01-29T09:38:58.008Z,23.9
2018-01-29T09:39:58.181Z,23.9
2018-01-29T09:40:58.028Z,23.9
2018-01-29T09:41:57.848Z,23.9
2018-01-29T09:42:57.706Z,23.9
2018-01-29T09:43:57.681Z,23.9
2018-01-29T09:44:57.606Z,23.9
2018-01-29T09:45:57.501Z,23.9
2018-01-29T09:46:57.660Z,23.9
2018-01-29T09:47:57.441Z,23.9
2018-01-29T09:48:57.664Z,23.9
2018-01-29T09:49:57.127Z,23.9
2018-01-29T09:50:57.486Z,23.9
2018-01-29T09:51:56.991Z,23.9
2018-01-29T09:52:57.036Z,23.8
2018-01-29T09:53:57.016Z,23.8
2018-01-29T09:54:57.176Z,23.8
2018-01-29T09:55:56.960Z,23.8
2018-01-29T09:56:56.707Z,23.8
2018-01-29T09:57:56.630Z,23.8
2018-01-29T09:58:56.679Z,23.8
2018-01-29T09:59:56.707Z,23.8
2018-01-29T10:00:56.404Z,23.8
2018-01-29T10:01:56.476Z,23.7
2018-01-29T10:02:56.470Z,23.7
2018-01-29T10:03:56.429Z,23.7
2018-01-29T10:04:56.258Z,23.7
2018-01-29T10:05:56.181Z,23.7
2018-01-29T10:06:56.405Z,23.7
2018-01-29T10:07:56.407Z,23.6
2018-01-29T10:08:55.836Z,23.6
2018-01-29T10:09:56.092Z,23.6
2018-01-29T10:10:55.783Z,23.6
2018-01-29T10:11:55.608Z,23.6
2018-01-29T10:12:55.781Z,23.6
2018-01-29T10:13:55.653Z,23.6
2018-01-29T10:14:55.669Z,23.6
2018-01-29T10:15:55.500Z,23.5
2018-01-29T10:16:55.478Z,23.5
2018-01-29T10:17:55.395Z,23.5
2018-01-29T10:18:55.183Z,23.5
2018-01-29T10:19:55.330Z,23.5
2018-01-29T10:20:55.039Z,23.5
2018-01-29T10:21:54.916Z,23.5
2018-01-29T10:22:55.085Z,23.5
2018-01-29T10:23:54.944Z,23.5
2018-01-29T10:24:54.854Z,23.5
2018-01-29T10:25:55.117Z,23.5
2018-01-29T10:26:54.692Z,23.5
2018-01-29T10:27:54.621Z,23.4
2018-01-29T10:28:54.500Z,23.4
2018-01-29T10:29:54.630Z,23.4
2018-01-29T10:30:54.742Z,23.4
2018-01-29T10:31:54.286Z,23.4
2018-01-29T10:32:54.525Z,23.4
2018-01-29T10:33:54.244Z,23.4
2018-01-29T10:34:54.732Z,23.4
2018-01-29T10:35:54.006Z,23.4
2018-01-29T10:36:54.154Z,23.4
2018-01-29T10:37:54.161Z,23.4
2018-01-29T10:38:54.012Z,23.4
2018-01-29T10:39:54.240Z,23.4
2018-01-29T10:40:53.878Z,23.4
2018-01-29T10:41:53.993Z,23.4
2018-01-29T10:42:53.677Z,23.4
2018-01-29T10:43:53.766Z,23.4
2018-01-29T10:44:53.678Z,23.4
2018-01-29T10:45:53.399Z,23.4
2018-01-29T10:46:53.243Z,23.4
2018-01-29T10:47:53.513Z,23.4
2018-01-29T10:48:53.212Z,23.4
2018-01-29T10:49:53.295Z,23.4
2018-01-29T10:50:53.149Z,23.4
2018-01-29T10:51:53.308Z,23.4
2018-01-29T10:52:52.937Z,23.4
2018-01-29T10:53:53.111Z,23.4
2018-01-29T10:54:52.724Z,23.4
2018-01-29T10:55:52.800Z,23.4
2018-01-29T10:56:52.800Z,23.4
2018-01-29T10:57:52.597Z,23.4
2018-01-29T10:58:52.638Z,23.4
2018-01-29T10:59:52.448Z,23.4
2018-01-29T11:00:52.404Z,23.4
2018-01-29T11:01:52.683Z,23.4
2018-01-29T11:02:52.261Z,23.4
2018-01-29T11:03:52.250Z,23.4
2018-01-29T11:04:52.112Z,23.4
2018-01-29T11:05:51.986Z,23.4
2018-01-29T11:06:52.104Z,23.4
2018-01-29T11:07:52.210Z,23.4
2018-01-29T11:08:51.720Z,23.4
2018-01-29T11:09:51.876Z,23.4
2018-01-29T11:10:51.881Z,23.4
2018-01-29T11:11:51.966Z,23.4
2018-01-29T11:12:51.610Z,23.4
2018-01-29T11:13:51.681Z,23.4
2018-01-29T11:14:51.272Z,23.4
2018-01-29T11:15:51.710Z,23.4
2018-01-29T11:16:51.207Z,23.4
2018-01-29T11:17:51.570Z,23.4
2018-01-29T11:18:51.141Z,23.3
2018-01-29T11:19:51.068Z,23.3
2018-01-29T11:20:50.963Z,23.3
2018-01-29T11:21:51.083Z,23.3
2018-01-29T11:22:50.973Z,23.3
2018-01-29T11:23:50.905Z,23.3
2018-01-29T11:24:50.834Z,23.3
2018-01-29T11:25:50.775Z,23.3
2018-01-29T11:26:50.544Z,23.3
2018-01-29T11:27:50.477Z,23.3
2018-01-29T11:28:50.487Z,23.3
2018-01-29T11:29:50.384Z,23.3
2018-01-29T11:30:50.314Z,23.3
2018-01-29T11:31:50.246Z,23.3
2018-01-29T11:32:50.129Z,23.3
2018-01-29T11:33:50.122Z,23.3
2018-01-29T11:34:50.029Z,23.3
2018-01-29T11:35:49.860Z,23.3
2018-01-29T11:36:50.048Z,23.3
2018-01-29T11:37:49.820Z,23.2
2018-01-29T11:38:49.624Z,23.2
2018-01-29T11:39:49.902Z,23.2
2018-01-29T11:40:49.800Z,23.2
2018-01-29T11:41:49.844Z,23.2
2018-01-29T11:42:49.481Z,23.2
2018-01-29T11:43:49.485Z,23.2
2018-01-29T11:44:49.305Z,23.2
2018-01-29T11:45:49.450Z,23.2
2018-01-29T11:46:49.169Z,23.2
2018-01-29T11:47:49.134Z,23.2
2018-01-29T11:48:49.137Z,23.2
2018-01-29T11:49:48.833Z,23.2
2018-01-29T11:50:48.820Z,23.2
2018-01-29T11:51:49.075Z,23.2
2018-01-29T11:52:48.793Z,23.2
2018-01-29T11:53:48.866Z,23.1
2018-01-29T11:54:48.602Z,23.1
2018-01-29T11:55:48.598Z,23.1
2018-01-29T11:56:48.583Z,23.2
2018-01-29T11:57:48.445Z,23.1
2018-01-29T11:58:48.368Z,23.1
2018-01-29T11:59:48.494Z,23.1
2018-01-29T12:00:48.505Z,23.2
2018-01-29T12:01:48.247Z,23.1
2018-01-29T12:02:48.007Z,23.1
2018-01-29T12:03:47.921Z,23.1
2018-01-29T12:04:47.885Z,23.1
2018-01-29T12:05:48.543Z,23.1
2018-01-29T12:06:47.745Z,23.1
2018-01-29T12:07:47.938Z,23.1
2018-01-29T12:08:47.797Z,23.1
2018-01-29T12:09:47.647Z,23.1
2018-01-29T12:10:47.500Z,23.1
2018-01-29T12:11:47.472Z,23.1
2018-01-29T12:12:47.428Z,23.1
2018-01-29T12:13:47.345Z,23.1
2018-01-29T12:14:47.376Z,23.1
2018-01-29T12:15:47.735Z,23.1
2018-01-29T12:16:47.269Z,23.1
2018-01-29T12:17:47.056Z,23.1
2018-01-29T12:18:47.164Z,23.1
2018-01-29T12:19:47.129Z,23.1
2018-01-29T12:20:46.921Z,23.1
2018-01-29T12:21:46.617Z,23.1
2018-01-29T12:22:46.713Z,23.1
2018-01-29T12:23:46.651Z,23.1
2018-01-29T12:24:46.883Z,23.1
2018-01-29T12:25:46.462Z,23
2018-01-29T12:26:46.368Z,23.1
2018-01-29T12:27:46.293Z,23
2018-01-29T12:28:46.673Z,23
2018-01-29T12:29:46.234Z,23
2018-01-29T12:30:46.151Z,23
2018-01-29T12:31:46.017Z,23
2018-01-29T12:32:46.309Z,23
2018-01-29T12:33:46.056Z,23
2018-01-29T12:34:46.168Z,23
2018-01-29T12:35:45.705Z,23
2018-01-29T12:36:45.578Z,23
2018-01-29T12:37:45.930Z,23
2018-01-29T12:38:45.626Z,23
2018-01-29T12:39:45.606Z,23
2018-01-29T12:40:45.863Z,23
2018-01-29T12:41:45.594Z,22.9
2018-01-29T12:42:45.326Z,22.9
2018-01-29T12:43:45.278Z,22.9
2018-01-29T12:44:45.265Z,22.9
2018-01-29T12:45:45.230Z,22.9
2018-01-29T12:46:45.049Z,22.9
2018-01-29T12:47:44.997Z,22.9
2018-01-29T12:48:44.951Z,22.9
2018-01-29T12:49:44.949Z,22.9
2018-01-29T12:50:44.735Z,22.9
2018-01-29T12:51:44.596Z,22.9
2018-01-29T12:52:44.527Z,22.9
2018-01-29T12:53:44.975Z,22.9
2018-01-29T12:54:44.876Z,22.9
2018-01-29T12:55:44.354Z,22.9
2018-01-29T12:56:44.280Z,22.9
2018-01-29T12:57:44.155Z,22.9
2018-01-29T12:58:44.437Z,22.9
2018-01-29T12:59:44.710Z,22.9
2018-01-29T13:00:44.098Z,22.9
2018-01-29T13:01:44.016Z,22.9
2018-01-29T13:02:44.084Z,22.9
2018-01-29T13:03:43.872Z,22.9
2018-01-29T13:04:44.044Z,22.9
2018-01-29T13:05:43.724Z,22.9
2018-01-29T13:06:43.660Z,22.9
2018-01-29T13:07:43.596Z,22.9
2018-01-29T13:08:43.369Z,22.9
2018-01-29T13:09:43.648Z,22.8
2018-01-29T13:10:43.323Z,22.9
2018-01-29T13:11:43.686Z,22.9
2018-01-29T13:12:43.469Z,22.8
2018-01-29T13:13:43.348Z,22.8
2018-01-29T13:14:43.160Z,22.8
2018-01-29T13:16:42.871Z,22.8
2018-01-29T13:17:42.893Z,22.8
2018-01-29T13:18:42.714Z,22.8
2018-01-29T13:19:42.621Z,22.8
2018-01-29T13:20:42.584Z,22.8
2018-01-29T13:21:42.535Z,22.8
2018-01-29T13:22:42.622Z,22.8
2018-01-29T13:23:42.499Z,22.8
2018-01-29T13:24:42.350Z,22.8
2018-01-29T13:25:42.372Z,22.8